sensor_id;sensor_type;location;lat;lon;timestamp;P1;durP1;ratioP1;P2;durP2;ratioP2
13584;SDS011;6863;48.402;9.994;2024-01-25T00:01:26;8.27;;;4.07;;
13584;SDS011;6863;48.402;9.994;2024-01-25T00:03:51;8.27;;;3.77;;
13584;SDS011;6863;48.402;9.994;2024-01-25T00:06:17;10.27;;;3.87;;
13584;SDS011;6863;48.402;9.994;2024-01-25T00:08:42;11.60;;;4.17;;
13584;SDS011;6863;48.402;9.994;2024-01-25T00:11:08;11.37;;;4.60;;
13584;SDS011;6863;48.402;9.994;2024-01-25T00:13:34;12.73;;;3.63;;
13584;SDS011;6863;48.402;9.994;2024-01-25T00:16:01;10.27;;;3.77;;
13584;SDS011;6863;48.402;9.994;2024-01-25T00:18:26;8.30;;;3.70;;
13584;SDS011;6863;48.402;9.994;2024-01-25T00:20:53;7.00;;;3.77;;
13584;SDS011;6863;48.402;9.994;2024-01-25T00:23:19;9.40;;;3.30;;
13584;SDS011;6863;48.402;9.994;2024-01-25T00:25:44;11.43;;;4.07;;
13584;SDS011;6863;48.402;9.994;2024-01-25T00:28:10;9.00;;;4.07;;
13584;SDS011;6863;48.402;9.994;2024-01-25T00:30:37;7.73;;;3.40;;
13584;SDS011;6863;48.402;9.994;2024-01-25T00:33:03;9.33;;;3.57;;
13584;SDS011;6863;48.402;9.994;2024-01-25T00:35:29;11.40;;;3.87;;
13584;SDS011;6863;48.402;9.994;2024-01-25T00:37:55;12.30;;;3.90;;
13584;SDS011;6863;48.402;9.994;2024-01-25T00:40:21;8.50;;;3.63;;
13584;SDS011;6863;48.402;9.994;2024-01-25T00:42:47;10.50;;;4.03;;
13584;SDS011;6863;48.402;9.994;2024-01-25T00:45:19;12.63;;;3.97;;
13584;SDS011;6863;48.402;9.994;2024-01-25T00:47:46;12.07;;;4.40;;
13584;SDS011;6863;48.402;9.994;2024-01-25T00:50:12;12.37;;;4.30;;
13584;SDS011;6863;48.402;9.994;2024-01-25T00:52:38;10.70;;;3.80;;
13584;SDS011;6863;48.402;9.994;2024-01-25T00:55:04;8.27;;;3.33;;
13584;SDS011;6863;48.402;9.994;2024-01-25T00:57:30;8.50;;;3.37;;
13584;SDS011;6863;48.402;9.994;2024-01-25T00:59:56;9.33;;;3.80;;
13584;SDS011;6863;48.402;9.994;2024-01-25T01:02:23;8.43;;;3.87;;
13584;SDS011;6863;48.402;9.994;2024-01-25T01:04:49;10.53;;;4.57;;
13584;SDS011;6863;48.402;9.994;2024-01-25T01:07:15;11.00;;;4.27;;
13584;SDS011;6863;48.402;9.994;2024-01-25T01:09:40;9.43;;;4.07;;
13584;SDS011;6863;48.402;9.994;2024-01-25T01:12:06;13.37;;;4.10;;
13584;SDS011;6863;48.402;9.994;2024-01-25T01:14:32;7.63;;;3.57;;
13584;SDS011;6863;48.402;9.994;2024-01-25T01:16:57;8.10;;;3.63;;
13584;SDS011;6863;48.402;9.994;2024-01-25T01:19:23;7.83;;;3.40;;
13584;SDS011;6863;48.402;9.994;2024-01-25T01:21:49;6.63;;;3.20;;
13584;SDS011;6863;48.402;9.994;2024-01-25T01:24:14;9.13;;;3.00;;
13584;SDS011;6863;48.402;9.994;2024-01-25T01:26:40;10.43;;;3.37;;
13584;SDS011;6863;48.402;9.994;2024-01-25T01:29:07;11.03;;;3.43;;
13584;SDS011;6863;48.402;9.994;2024-01-25T01:31:33;12.77;;;3.10;;
13584;SDS011;6863;48.402;9.994;2024-01-25T01:33:58;9.10;;;2.90;;
13584;SDS011;6863;48.402;9.994;2024-01-25T01:36:24;7.57;;;2.80;;
13584;SDS011;6863;48.402;9.994;2024-01-25T01:38:50;6.80;;;3.30;;
13584;SDS011;6863;48.402;9.994;2024-01-25T01:41:15;7.23;;;3.10;;
13584;SDS011;6863;48.402;9.994;2024-01-25T01:43:41;6.93;;;2.60;;
13584;SDS011;6863;48.402;9.994;2024-01-25T01:46:09;6.33;;;2.60;;
13584;SDS011;6863;48.402;9.994;2024-01-25T01:48:38;7.37;;;3.63;;
13584;SDS011;6863;48.402;9.994;2024-01-25T01:51:04;5.90;;;3.10;;
13584;SDS011;6863;48.402;9.994;2024-01-25T01:53:30;8.20;;;3.03;;
13584;SDS011;6863;48.402;9.994;2024-01-25T01:55:57;7.70;;;2.63;;
13584;SDS011;6863;48.402;9.994;2024-01-25T01:58:23;6.20;;;2.93;;
13584;SDS011;6863;48.402;9.994;2024-01-25T02:00:51;8.67;;;3.67;;
13584;SDS011;6863;48.402;9.994;2024-01-25T02:03:18;9.80;;;3.67;;
13584;SDS011;6863;48.402;9.994;2024-01-25T02:05:44;5.77;;;2.83;;
13584;SDS011;6863;48.402;9.994;2024-01-25T02:08:10;10.70;;;3.17;;
13584;SDS011;6863;48.402;9.994;2024-01-25T02:10:35;7.93;;;3.23;;
13584;SDS011;6863;48.402;9.994;2024-01-25T02:13:01;6.00;;;2.87;;
13584;SDS011;6863;48.402;9.994;2024-01-25T02:15:26;4.47;;;2.37;;
13584;SDS011;6863;48.402;9.994;2024-01-25T02:17:52;7.47;;;2.90;;
13584;SDS011;6863;48.402;9.994;2024-01-25T02:20:18;6.73;;;3.10;;
13584;SDS011;6863;48.402;9.994;2024-01-25T02:22:44;7.63;;;2.90;;
13584;SDS011;6863;48.402;9.994;2024-01-25T02:25:09;7.43;;;2.97;;
13584;SDS011;6863;48.402;9.994;2024-01-25T02:27:35;8.80;;;3.17;;
13584;SDS011;6863;48.402;9.994;2024-01-25T02:30:04;10.47;;;2.83;;
13584;SDS011;6863;48.402;9.994;2024-01-25T02:32:30;5.53;;;2.37;;
13584;SDS011;6863;48.402;9.994;2024-01-25T02:34:56;5.17;;;2.50;;
13584;SDS011;6863;48.402;9.994;2024-01-25T02:37:21;7.67;;;2.90;;
13584;SDS011;6863;48.402;9.994;2024-01-25T02:39:47;7.37;;;3.00;;
13584;SDS011;6863;48.402;9.994;2024-01-25T02:42:12;9.13;;;3.20;;
13584;SDS011;6863;48.402;9.994;2024-01-25T02:44:39;8.93;;;2.73;;
13584;SDS011;6863;48.402;9.994;2024-01-25T02:47:04;8.50;;;2.80;;
13584;SDS011;6863;48.402;9.994;2024-01-25T02:49:30;9.90;;;2.87;;
13584;SDS011;6863;48.402;9.994;2024-01-25T02:51:55;5.20;;;2.10;;
13584;SDS011;6863;48.402;9.994;2024-01-25T02:54:21;3.73;;;2.70;;
13584;SDS011;6863;48.402;9.994;2024-01-25T02:56:46;8.20;;;2.70;;
13584;SDS011;6863;48.402;9.994;2024-01-25T02:59:12;6.43;;;2.67;;
13584;SDS011;6863;48.402;9.994;2024-01-25T03:01:41;8.10;;;2.60;;
13584;SDS011;6863;48.402;9.994;2024-01-25T03:04:07;6.17;;;2.53;;
13584;SDS011;6863;48.402;9.994;2024-01-25T03:06:33;7.70;;;2.60;;
13584;SDS011;6863;48.402;9.994;2024-01-25T03:08:58;7.33;;;2.77;;
13584;SDS011;6863;48.402;9.994;2024-01-25T03:11:24;5.90;;;2.90;;
13584;SDS011;6863;48.402;9.994;2024-01-25T03:13:50;7.03;;;3.10;;
13584;SDS011;6863;48.402;9.994;2024-01-25T03:16:15;7.53;;;2.70;;
13584;SDS011;6863;48.402;9.994;2024-01-25T03:18:41;8.07;;;3.27;;
13584;SDS011;6863;48.402;9.994;2024-01-25T03:21:07;11.80;;;3.57;;
13584;SDS011;6863;48.402;9.994;2024-01-25T03:23:32;10.93;;;3.23;;
13584;SDS011;6863;48.402;9.994;2024-01-25T03:25:58;9.60;;;3.80;;
13584;SDS011;6863;48.402;9.994;2024-01-25T03:28:26;10.00;;;3.33;;
13584;SDS011;6863;48.402;9.994;2024-01-25T03:30:51;9.50;;;3.57;;
13584;SDS011;6863;48.402;9.994;2024-01-25T03:33:17;5.70;;;3.20;;
13584;SDS011;6863;48.402;9.994;2024-01-25T03:35:42;10.97;;;3.57;;
13584;SDS011;6863;48.402;9.994;2024-01-25T03:38:08;5.80;;;3.50;;
13584;SDS011;6863;48.402;9.994;2024-01-25T03:40:33;10.57;;;3.53;;
13584;SDS011;6863;48.402;9.994;2024-01-25T03:42:59;11.13;;;3.57;;
13584;SDS011;6863;48.402;9.994;2024-01-25T03:45:25;8.50;;;2.97;;
13584;SDS011;6863;48.402;9.994;2024-01-25T03:47:50;8.53;;;3.00;;
13584;SDS011;6863;48.402;9.994;2024-01-25T03:50:16;9.10;;;2.67;;
13584;SDS011;6863;48.402;9.994;2024-01-25T03:52:41;9.13;;;3.00;;
13584;SDS011;6863;48.402;9.994;2024-01-25T03:55:07;9.17;;;3.53;;
13584;SDS011;6863;48.402;9.994;2024-01-25T03:57:32;8.70;;;2.50;;
13584;SDS011;6863;48.402;9.994;2024-01-25T03:59:58;7.87;;;2.60;;
13584;SDS011;6863;48.402;9.994;2024-01-25T04:02:23;9.07;;;2.60;;
13584;SDS011;6863;48.402;9.994;2024-01-25T04:04:49;10.00;;;3.07;;
13584;SDS011;6863;48.402;9.994;2024-01-25T04:07:15;6.23;;;2.33;;
13584;SDS011;6863;48.402;9.994;2024-01-25T04:09:40;5.67;;;2.53;;
13584;SDS011;6863;48.402;9.994;2024-01-25T04:12:06;4.67;;;2.20;;
13584;SDS011;6863;48.402;9.994;2024-01-25T04:14:31;6.03;;;2.90;;
13584;SDS011;6863;48.402;9.994;2024-01-25T04:16:57;6.20;;;2.40;;
13584;SDS011;6863;48.402;9.994;2024-01-25T04:19:22;10.70;;;3.03;;
13584;SDS011;6863;48.402;9.994;2024-01-25T04:21:49;10.40;;;3.10;;
13584;SDS011;6863;48.402;9.994;2024-01-25T04:24:14;9.17;;;3.13;;
13584;SDS011;6863;48.402;9.994;2024-01-25T04:26:40;5.43;;;2.37;;
13584;SDS011;6863;48.402;9.994;2024-01-25T04:29:05;7.17;;;2.30;;
13584;SDS011;6863;48.402;9.994;2024-01-25T04:31:31;7.37;;;2.40;;
13584;SDS011;6863;48.402;9.994;2024-01-25T04:33:57;5.27;;;2.43;;
13584;SDS011;6863;48.402;9.994;2024-01-25T04:36:22;5.47;;;2.40;;
13584;SDS011;6863;48.402;9.994;2024-01-25T04:38:48;4.57;;;2.33;;
13584;SDS011;6863;48.402;9.994;2024-01-25T04:41:14;8.27;;;2.70;;
13584;SDS011;6863;48.402;9.994;2024-01-25T04:43:39;6.37;;;2.43;;
13584;SDS011;6863;48.402;9.994;2024-01-25T04:46:05;5.00;;;2.70;;
13584;SDS011;6863;48.402;9.994;2024-01-25T04:48:30;3.60;;;2.10;;
13584;SDS011;6863;48.402;9.994;2024-01-25T04:50:59;5.20;;;2.30;;
13584;SDS011;6863;48.402;9.994;2024-01-25T04:53:25;6.37;;;2.50;;
13584;SDS011;6863;48.402;9.994;2024-01-25T04:55:50;9.03;;;2.40;;
13584;SDS011;6863;48.402;9.994;2024-01-25T04:58:16;6.13;;;2.37;;
13584;SDS011;6863;48.402;9.994;2024-01-25T05:00:41;8.90;;;2.60;;
13584;SDS011;6863;48.402;9.994;2024-01-25T05:03:07;7.50;;;3.10;;
13584;SDS011;6863;48.402;9.994;2024-01-25T05:05:32;7.33;;;2.70;;
13584;SDS011;6863;48.402;9.994;2024-01-25T05:07:58;6.90;;;3.20;;
13584;SDS011;6863;48.402;9.994;2024-01-25T05:10:23;6.47;;;2.87;;
13584;SDS011;6863;48.402;9.994;2024-01-25T05:12:50;6.07;;;2.63;;
13584;SDS011;6863;48.402;9.994;2024-01-25T05:15:16;10.30;;;2.53;;
13584;SDS011;6863;48.402;9.994;2024-01-25T05:17:41;7.00;;;2.90;;
13584;SDS011;6863;48.402;9.994;2024-01-25T05:20:07;5.70;;;2.23;;
13584;SDS011;6863;48.402;9.994;2024-01-25T05:22:33;8.37;;;3.00;;
13584;SDS011;6863;48.402;9.994;2024-01-25T05:25:05;9.43;;;3.40;;
13584;SDS011;6863;48.402;9.994;2024-01-25T05:27:31;6.53;;;3.23;;
13584;SDS011;6863;48.402;9.994;2024-01-25T05:29:56;5.57;;;2.37;;
13584;SDS011;6863;48.402;9.994;2024-01-25T05:32:22;7.97;;;3.10;;
13584;SDS011;6863;48.402;9.994;2024-01-25T05:34:47;7.10;;;3.20;;
13584;SDS011;6863;48.402;9.994;2024-01-25T05:37:13;7.70;;;2.93;;
13584;SDS011;6863;48.402;9.994;2024-01-25T05:39:38;5.60;;;3.30;;
13584;SDS011;6863;48.402;9.994;2024-01-25T05:42:04;10.47;;;3.40;;
13584;SDS011;6863;48.402;9.994;2024-01-25T05:44:29;4.87;;;2.63;;
13584;SDS011;6863;48.402;9.994;2024-01-25T05:46:55;7.53;;;3.53;;
13584;SDS011;6863;48.402;9.994;2024-01-25T05:49:20;6.43;;;3.03;;
13584;SDS011;6863;48.402;9.994;2024-01-25T05:51:46;9.63;;;3.30;;
13584;SDS011;6863;48.402;9.994;2024-01-25T05:54:12;10.30;;;3.47;;
13584;SDS011;6863;48.402;9.994;2024-01-25T05:56:37;9.20;;;3.10;;
13584;SDS011;6863;48.402;9.994;2024-01-25T05:59:03;10.20;;;4.50;;
13584;SDS011;6863;48.402;9.994;2024-01-25T06:01:28;8.00;;;3.60;;
13584;SDS011;6863;48.402;9.994;2024-01-25T06:03:54;9.90;;;3.37;;
13584;SDS011;6863;48.402;9.994;2024-01-25T06:06:19;6.40;;;3.13;;
13584;SDS011;6863;48.402;9.994;2024-01-25T06:08:45;6.93;;;3.20;;
13584;SDS011;6863;48.402;9.994;2024-01-25T06:11:10;6.27;;;3.60;;
13584;SDS011;6863;48.402;9.994;2024-01-25T06:13:36;10.13;;;3.57;;
13584;SDS011;6863;48.402;9.994;2024-01-25T06:16:01;7.50;;;2.93;;
13584;SDS011;6863;48.402;9.994;2024-01-25T06:18:27;13.33;;;3.90;;
13584;SDS011;6863;48.402;9.994;2024-01-25T06:20:53;8.77;;;4.10;;
13584;SDS011;6863;48.402;9.994;2024-01-25T06:23:18;12.07;;;3.70;;
13584;SDS011;6863;48.402;9.994;2024-01-25T06:25:44;8.40;;;3.43;;
13584;SDS011;6863;48.402;9.994;2024-01-25T06:28:09;9.50;;;3.73;;
13584;SDS011;6863;48.402;9.994;2024-01-25T06:30:35;7.43;;;3.30;;
13584;SDS011;6863;48.402;9.994;2024-01-25T06:33:00;8.67;;;3.20;;
13584;SDS011;6863;48.402;9.994;2024-01-25T06:35:32;9.17;;;3.43;;
13584;SDS011;6863;48.402;9.994;2024-01-25T06:38:07;6.60;;;3.20;;
13584;SDS011;6863;48.402;9.994;2024-01-25T06:40:32;7.80;;;3.67;;
13584;SDS011;6863;48.402;9.994;2024-01-25T06:42:58;7.93;;;3.40;;
13584;SDS011;6863;48.402;9.994;2024-01-25T06:45:23;7.47;;;3.37;;
13584;SDS011;6863;48.402;9.994;2024-01-25T06:47:49;7.63;;;3.60;;
13584;SDS011;6863;48.402;9.994;2024-01-25T06:50:14;9.20;;;3.80;;
13584;SDS011;6863;48.402;9.994;2024-01-25T06:52:40;7.90;;;3.80;;
13584;SDS011;6863;48.402;9.994;2024-01-25T06:55:06;9.17;;;3.70;;
13584;SDS011;6863;48.402;9.994;2024-01-25T06:57:31;11.87;;;4.27;;
13584;SDS011;6863;48.402;9.994;2024-01-25T06:59:57;8.10;;;3.47;;
13584;SDS011;6863;48.402;9.994;2024-01-25T07:02:22;6.27;;;3.87;;
13584;SDS011;6863;48.402;9.994;2024-01-25T07:04:48;15.00;;;4.83;;
13584;SDS011;6863;48.402;9.994;2024-01-25T07:07:13;11.80;;;4.10;;
13584;SDS011;6863;48.402;9.994;2024-01-25T07:09:39;11.83;;;3.87;;
13584;SDS011;6863;48.402;9.994;2024-01-25T07:12:05;9.93;;;4.37;;
13584;SDS011;6863;48.402;9.994;2024-01-25T07:14:30;11.03;;;4.10;;
13584;SDS011;6863;48.402;9.994;2024-01-25T07:16:56;8.97;;;3.83;;
13584;SDS011;6863;48.402;9.994;2024-01-25T07:19:22;11.67;;;4.47;;
13584;SDS011;6863;48.402;9.994;2024-01-25T07:21:47;13.23;;;4.40;;
13584;SDS011;6863;48.402;9.994;2024-01-25T07:24:13;8.80;;;5.00;;
13584;SDS011;6863;48.402;9.994;2024-01-25T07:26:38;10.43;;;5.47;;
13584;SDS011;6863;48.402;9.994;2024-01-25T07:29:04;10.57;;;5.10;;
13584;SDS011;6863;48.402;9.994;2024-01-25T07:31:29;12.97;;;5.23;;
13584;SDS011;6863;48.402;9.994;2024-01-25T07:33:55;18.60;;;5.57;;
13584;SDS011;6863;48.402;9.994;2024-01-25T07:36:20;9.00;;;4.40;;
13584;SDS011;6863;48.402;9.994;2024-01-25T07:38:46;11.57;;;5.30;;
13584;SDS011;6863;48.402;9.994;2024-01-25T07:41:12;12.30;;;5.23;;
13584;SDS011;6863;48.402;9.994;2024-01-25T07:43:38;11.63;;;5.57;;
13584;SDS011;6863;48.402;9.994;2024-01-25T07:46:03;11.10;;;5.40;;
13584;SDS011;6863;48.402;9.994;2024-01-25T07:48:29;9.43;;;4.73;;
13584;SDS011;6863;48.402;9.994;2024-01-25T07:50:55;11.53;;;4.80;;
13584;SDS011;6863;48.402;9.994;2024-01-25T07:53:21;9.67;;;5.80;;
13584;SDS011;6863;48.402;9.994;2024-01-25T07:55:47;10.00;;;5.00;;
13584;SDS011;6863;48.402;9.994;2024-01-25T07:58:14;11.83;;;5.73;;
13584;SDS011;6863;48.402;9.994;2024-01-25T08:00:40;15.03;;;5.13;;
13584;SDS011;6863;48.402;9.994;2024-01-25T08:03:16;15.53;;;6.70;;
13584;SDS011;6863;48.402;9.994;2024-01-25T08:05:51;9.90;;;5.57;;
13584;SDS011;6863;48.402;9.994;2024-01-25T08:08:16;14.13;;;6.83;;
13584;SDS011;6863;48.402;9.994;2024-01-25T08:10:42;14.07;;;9.20;;
13584;SDS011;6863;48.402;9.994;2024-01-25T08:13:10;11.60;;;7.10;;
13584;SDS011;6863;48.402;9.994;2024-01-25T08:15:36;8.50;;;5.50;;
13584;SDS011;6863;48.402;9.994;2024-01-25T08:18:02;12.10;;;5.80;;
13584;SDS011;6863;48.402;9.994;2024-01-25T08:20:27;7.80;;;4.93;;
13584;SDS011;6863;48.402;9.994;2024-01-25T08:22:53;11.50;;;4.57;;
13584;SDS011;6863;48.402;9.994;2024-01-25T08:25:19;9.30;;;4.20;;
13584;SDS011;6863;48.402;9.994;2024-01-25T08:27:45;11.30;;;4.70;;
13584;SDS011;6863;48.402;9.994;2024-01-25T08:30:11;10.53;;;4.37;;
13584;SDS011;6863;48.402;9.994;2024-01-25T08:32:37;9.43;;;3.60;;
13584;SDS011;6863;48.402;9.994;2024-01-25T08:35:02;9.43;;;4.50;;
13584;SDS011;6863;48.402;9.994;2024-01-25T08:37:28;7.87;;;4.60;;
13584;SDS011;6863;48.402;9.994;2024-01-25T08:39:54;10.63;;;4.17;;
13584;SDS011;6863;48.402;9.994;2024-01-25T08:42:20;11.97;;;4.60;;
13584;SDS011;6863;48.402;9.994;2024-01-25T08:44:46;9.20;;;4.28;;
13584;SDS011;6863;48.402;9.994;2024-01-25T08:47:14;7.03;;;4.13;;
13584;SDS011;6863;48.402;9.994;2024-01-25T08:49:43;9.07;;;3.65;;
13584;SDS011;6863;48.402;9.994;2024-01-25T08:52:09;9.60;;;3.95;;
13584;SDS011;6863;48.402;9.994;2024-01-25T08:54:34;9.05;;;4.72;;
13584;SDS011;6863;48.402;9.994;2024-01-25T08:57:02;9.35;;;5.97;;
13584;SDS011;6863;48.402;9.994;2024-01-25T08:59:31;6.22;;;4.50;;
13584;SDS011;6863;48.402;9.994;2024-01-25T09:01:58;8.00;;;4.22;;
13584;SDS011;6863;48.402;9.994;2024-01-25T09:04:24;7.10;;;3.80;;
13584;SDS011;6863;48.402;9.994;2024-01-25T09:06:49;9.23;;;3.50;;
13584;SDS011;6863;48.402;9.994;2024-01-25T09:09:15;8.55;;;3.45;;
13584;SDS011;6863;48.402;9.994;2024-01-25T09:11:40;6.78;;;3.10;;
13584;SDS011;6863;48.402;9.994;2024-01-25T09:14:06;8.43;;;3.70;;
13584;SDS011;6863;48.402;9.994;2024-01-25T09:16:31;6.75;;;4.32;;
13584;SDS011;6863;48.402;9.994;2024-01-25T09:18:57;5.15;;;3.33;;
13584;SDS011;6863;48.402;9.994;2024-01-25T09:21:24;6.32;;;3.33;;
13584;SDS011;6863;48.402;9.994;2024-01-25T09:23:50;7.97;;;3.47;;
13584;SDS011;6863;48.402;9.994;2024-01-25T09:26:15;5.75;;;3.67;;
13584;SDS011;6863;48.402;9.994;2024-01-25T09:28:41;4.93;;;3.10;;
13584;SDS011;6863;48.402;9.994;2024-01-25T09:31:06;5.50;;;3.28;;
13584;SDS011;6863;48.402;9.994;2024-01-25T09:33:35;6.70;;;3.70;;
13584;SDS011;6863;48.402;9.994;2024-01-25T09:36:00;6.78;;;2.92;;
13584;SDS011;6863;48.402;9.994;2024-01-25T09:38:26;6.38;;;5.35;;
13584;SDS011;6863;48.402;9.994;2024-01-25T09:40:52;7.68;;;5.43;;
13584;SDS011;6863;48.402;9.994;2024-01-25T09:43:18;6.68;;;4.07;;
13584;SDS011;6863;48.402;9.994;2024-01-25T09:45:45;7.70;;;3.65;;
13584;SDS011;6863;48.402;9.994;2024-01-25T09:48:13;6.68;;;3.55;;
13584;SDS011;6863;48.402;9.994;2024-01-25T09:50:39;7.85;;;2.60;;
13584;SDS011;6863;48.402;9.994;2024-01-25T09:53:05;6.13;;;3.53;;
13584;SDS011;6863;48.402;9.994;2024-01-25T09:55:35;5.82;;;3.10;;
13584;SDS011;6863;48.402;9.994;2024-01-25T09:58:06;5.13;;;3.38;;
13584;SDS011;6863;48.402;9.994;2024-01-25T10:00:33;6.25;;;3.10;;
13584;SDS011;6863;48.402;9.994;2024-01-25T10:02:59;8.80;;;3.67;;
13584;SDS011;6863;48.402;9.994;2024-01-25T10:05:25;9.63;;;3.55;;
13584;SDS011;6863;48.402;9.994;2024-01-25T10:07:50;11.10;;;3.50;;
13584;SDS011;6863;48.402;9.994;2024-01-25T10:10:16;6.13;;;3.13;;
13584;SDS011;6863;48.402;9.994;2024-01-25T10:12:42;8.65;;;3.50;;
13584;SDS011;6863;48.402;9.994;2024-01-25T10:15:08;8.55;;;3.20;;
13584;SDS011;6863;48.402;9.994;2024-01-25T10:17:34;4.95;;;3.10;;
13584;SDS011;6863;48.402;9.994;2024-01-25T10:20:00;8.15;;;3.92;;
13584;SDS011;6863;48.402;9.994;2024-01-25T10:22:26;6.55;;;3.67;;
13584;SDS011;6863;48.402;9.994;2024-01-25T10:24:52;5.90;;;4.20;;
13584;SDS011;6863;48.402;9.994;2024-01-25T10:27:21;6.40;;;3.05;;
13584;SDS011;6863;48.402;9.994;2024-01-25T10:29:46;7.10;;;3.47;;
13584;SDS011;6863;48.402;9.994;2024-01-25T10:32:12;8.02;;;3.20;;
13584;SDS011;6863;48.402;9.994;2024-01-25T10:34:38;8.65;;;3.95;;
13584;SDS011;6863;48.402;9.994;2024-01-25T10:37:07;7.95;;;3.75;;
13584;SDS011;6863;48.402;9.994;2024-01-25T10:39:33;6.97;;;3.33;;
13584;SDS011;6863;48.402;9.994;2024-01-25T10:41:59;4.97;;;3.08;;
13584;SDS011;6863;48.402;9.994;2024-01-25T10:44:25;6.60;;;2.83;;
13584;SDS011;6863;48.402;9.994;2024-01-25T10:46:51;6.63;;;3.38;;
13584;SDS011;6863;48.402;9.994;2024-01-25T10:49:19;5.40;;;3.15;;
13584;SDS011;6863;48.402;9.994;2024-01-25T10:51:46;7.20;;;3.50;;
13584;SDS011;6863;48.402;9.994;2024-01-25T10:54:13;7.72;;;3.63;;
13584;SDS011;6863;48.402;9.994;2024-01-25T10:56:43;7.40;;;3.72;;
13584;SDS011;6863;48.402;9.994;2024-01-25T10:59:12;5.47;;;3.05;;
13584;SDS011;6863;48.402;9.994;2024-01-25T11:01:42;6.32;;;3.20;;
13584;SDS011;6863;48.402;9.994;2024-01-25T11:04:15;9.98;;;3.50;;
13584;SDS011;6863;48.402;9.994;2024-01-25T11:06:42;8.65;;;3.45;;
13584;SDS011;6863;48.402;9.994;2024-01-25T11:09:18;8.63;;;3.63;;
13584;SDS011;6863;48.402;9.994;2024-01-25T11:11:46;8.40;;;3.33;;
13584;SDS011;6863;48.402;9.994;2024-01-25T11:14:16;7.50;;;3.55;;
13584;SDS011;6863;48.402;9.994;2024-01-25T11:16:44;10.00;;;3.95;;
13584;SDS011;6863;48.402;9.994;2024-01-25T11:19:15;4.97;;;3.03;;
13584;SDS011;6863;48.402;9.994;2024-01-25T11:21:49;6.88;;;3.05;;
13584;SDS011;6863;48.402;9.994;2024-01-25T11:24:16;7.07;;;3.05;;
13584;SDS011;6863;48.402;9.994;2024-01-25T11:26:45;9.25;;;4.55;;
13584;SDS011;6863;48.402;9.994;2024-01-25T11:29:17;8.68;;;3.83;;
13584;SDS011;6863;48.402;9.994;2024-01-25T11:31:46;7.30;;;3.03;;
13584;SDS011;6863;48.402;9.994;2024-01-25T11:34:13;8.57;;;3.25;;
13584;SDS011;6863;48.402;9.994;2024-01-25T11:36:46;5.88;;;3.08;;
13584;SDS011;6863;48.402;9.994;2024-01-25T11:39:13;9.13;;;3.15;;
13584;SDS011;6863;48.402;9.994;2024-01-25T11:41:40;8.40;;;3.35;;
13584;SDS011;6863;48.402;9.994;2024-01-25T11:44:07;4.82;;;2.85;;
13584;SDS011;6863;48.402;9.994;2024-01-25T11:46:34;5.30;;;3.00;;
13584;SDS011;6863;48.402;9.994;2024-01-25T11:49:00;6.00;;;3.22;;
13584;SDS011;6863;48.402;9.994;2024-01-25T11:51:26;7.30;;;3.40;;
13584;SDS011;6863;48.402;9.994;2024-01-25T11:53:52;7.50;;;2.83;;
13584;SDS011;6863;48.402;9.994;2024-01-25T11:58:43;5.07;;;3.03;;
13584;SDS011;6863;48.402;9.994;2024-01-25T12:01:10;5.38;;;2.70;;
13584;SDS011;6863;48.402;9.994;2024-01-25T12:03:37;4.97;;;2.83;;
13584;SDS011;6863;48.402;9.994;2024-01-25T12:06:03;5.22;;;2.75;;
13584;SDS011;6863;48.402;9.994;2024-01-25T12:08:31;5.25;;;2.95;;
13584;SDS011;6863;48.402;9.994;2024-01-25T12:11:10;6.13;;;3.13;;
13584;SDS011;6863;48.402;9.994;2024-01-25T12:13:41;5.75;;;2.80;;
13584;SDS011;6863;48.402;9.994;2024-01-25T12:16:08;5.28;;;3.10;;
13584;SDS011;6863;48.402;9.994;2024-01-25T12:18:34;7.07;;;3.03;;
13584;SDS011;6863;48.402;9.994;2024-01-25T12:21:01;9.20;;;3.42;;
13584;SDS011;6863;48.402;9.994;2024-01-25T12:23:37;8.02;;;2.60;;
13584;SDS011;6863;48.402;9.994;2024-01-25T12:26:08;7.72;;;3.10;;
13584;SDS011;6863;48.402;9.994;2024-01-25T12:28:35;4.70;;;3.38;;
13584;SDS011;6863;48.402;9.994;2024-01-25T12:31:04;10.65;;;6.15;;
13584;SDS011;6863;48.402;9.994;2024-01-25T12:33:31;6.90;;;3.75;;
13584;SDS011;6863;48.402;9.994;2024-01-25T12:35:58;5.63;;;3.80;;
13584;SDS011;6863;48.402;9.994;2024-01-25T12:38:24;5.82;;;2.75;;
13584;SDS011;6863;48.402;9.994;2024-01-25T12:40:50;6.68;;;3.08;;
13584;SDS011;6863;48.402;9.994;2024-01-25T12:43:20;7.22;;;2.65;;
13584;SDS011;6863;48.402;9.994;2024-01-25T12:45:48;5.63;;;3.08;;
13584;SDS011;6863;48.402;9.994;2024-01-25T12:48:14;6.05;;;2.63;;
13584;SDS011;6863;48.402;9.994;2024-01-25T12:50:40;6.45;;;2.92;;
13584;SDS011;6863;48.402;9.994;2024-01-25T12:53:06;6.72;;;2.80;;
13584;SDS011;6863;48.402;9.994;2024-01-25T12:55:33;7.13;;;2.92;;
13584;SDS011;6863;48.402;9.994;2024-01-25T12:58:00;4.10;;;2.45;;
13584;SDS011;6863;48.402;9.994;2024-01-25T13:00:25;3.67;;;2.58;;
13584;SDS011;6863;48.402;9.994;2024-01-25T13:02:51;3.72;;;2.72;;
13584;SDS011;6863;48.402;9.994;2024-01-25T13:05:19;3.72;;;2.13;;
13584;SDS011;6863;48.402;9.994;2024-01-25T13:07:45;5.43;;;2.78;;
13584;SDS011;6863;48.402;9.994;2024-01-25T13:10:11;4.40;;;2.30;;
13584;SDS011;6863;48.402;9.994;2024-01-25T13:15:05;5.30;;;2.35;;
13584;SDS011;6863;48.402;9.994;2024-01-25T13:17:33;5.13;;;2.92;;
13584;SDS011;6863;48.402;9.994;2024-01-25T13:20:00;5.57;;;3.65;;
13584;SDS011;6863;48.402;9.994;2024-01-25T13:22:26;3.13;;;2.38;;
13584;SDS011;6863;48.402;9.994;2024-01-25T13:24:52;4.15;;;2.30;;
13584;SDS011;6863;48.402;9.994;2024-01-25T13:27:21;3.80;;;1.92;;
13584;SDS011;6863;48.402;9.994;2024-01-25T13:29:46;3.22;;;1.90;;
13584;SDS011;6863;48.402;9.994;2024-01-25T13:32:12;4.57;;;2.00;;
13584;SDS011;6863;48.402;9.994;2024-01-25T13:34:38;4.10;;;1.80;;
13584;SDS011;6863;48.402;9.994;2024-01-25T13:37:03;3.63;;;2.20;;
13584;SDS011;6863;48.402;9.994;2024-01-25T13:39:29;3.40;;;1.90;;
13584;SDS011;6863;48.402;9.994;2024-01-25T13:41:54;4.85;;;2.47;;
13584;SDS011;6863;48.402;9.994;2024-01-25T13:44:21;38.40;;;10.75;;
13584;SDS011;6863;48.402;9.994;2024-01-25T13:46:47;3.80;;;2.30;;
13584;SDS011;6863;48.402;9.994;2024-01-25T13:49:13;3.60;;;2.15;;
13584;SDS011;6863;48.402;9.994;2024-01-25T13:51:38;3.30;;;1.95;;
13584;SDS011;6863;48.402;9.994;2024-01-25T13:54:04;3.60;;;2.20;;
13584;SDS011;6863;48.402;9.994;2024-01-25T13:56:29;6.78;;;2.78;;
13584;SDS011;6863;48.402;9.994;2024-01-25T13:58:55;3.72;;;1.92;;
13584;SDS011;6863;48.402;9.994;2024-01-25T14:01:21;3.35;;;1.63;;
13584;SDS011;6863;48.402;9.994;2024-01-25T14:03:47;6.13;;;2.30;;
13584;SDS011;6863;48.402;9.994;2024-01-25T14:06:12;5.05;;;2.85;;
13584;SDS011;6863;48.402;9.994;2024-01-25T14:08:38;3.88;;;2.70;;
13584;SDS011;6863;48.402;9.994;2024-01-25T14:11:04;4.78;;;2.80;;
13584;SDS011;6863;48.402;9.994;2024-01-25T14:13:31;5.57;;;2.60;;
13584;SDS011;6863;48.402;9.994;2024-01-25T14:15:57;5.57;;;2.85;;
13584;SDS011;6863;48.402;9.994;2024-01-25T14:18:23;3.67;;;2.55;;
13584;SDS011;6863;48.402;9.994;2024-01-25T14:20:49;5.10;;;2.75;;
13584;SDS011;6863;48.402;9.994;2024-01-25T14:23:15;5.28;;;2.70;;
13584;SDS011;6863;48.402;9.994;2024-01-25T14:25:40;5.57;;;3.65;;
13584;SDS011;6863;48.402;9.994;2024-01-25T14:28:06;4.78;;;3.15;;
13584;SDS011;6863;48.402;9.994;2024-01-25T14:30:31;5.50;;;2.58;;
13584;SDS011;6863;48.402;9.994;2024-01-25T14:32:57;3.97;;;2.60;;
13584;SDS011;6863;48.402;9.994;2024-01-25T14:35:23;6.40;;;2.67;;
13584;SDS011;6863;48.402;9.994;2024-01-25T14:37:56;7.30;;;2.30;;
13584;SDS011;6863;48.402;9.994;2024-01-25T14:40:22;3.75;;;2.10;;
13584;SDS011;6863;48.402;9.994;2024-01-25T14:42:47;5.65;;;2.55;;
13584;SDS011;6863;48.402;9.994;2024-01-25T14:45:13;2.67;;;1.65;;
13584;SDS011;6863;48.402;9.994;2024-01-25T14:47:39;4.43;;;2.20;;
13584;SDS011;6863;48.402;9.994;2024-01-25T14:50:05;3.15;;;1.92;;
13584;SDS011;6863;48.402;9.994;2024-01-25T14:52:32;14.18;;;3.42;;
13584;SDS011;6863;48.402;9.994;2024-01-25T14:54:59;2.60;;;1.80;;
13584;SDS011;6863;48.402;9.994;2024-01-25T14:57:26;3.28;;;2.08;;